Time;durP1;ratioP1;P1;durP2;ratioP2;P2;SDS_P1;SDS_P2;PMS_P1;PMS_P2;Temp;Humidity;BMP_temperature;BMP_pressure;BME280_temperature;BME280_humidity;BME280_pressure;Samples;Min_cycle;Max_cycle;Signal;HPM_P1;HPM_P2
2022/12/18 08:44:48;;;;;;;;;;;;;;;-1.83;70.70;99580.59;5088675;23;19960;-66
2022/12/18 08:47:14;;;;;;;;;;;;;;;-1.83;71.03;99571.16;4870327;29;19967;-65
2022/12/18 08:49:39;;;;;;;;;;;;;;;-1.84;71.68;99564.31;4873636;29;20388;-65
2022/12/18 08:52:04;;;;;;;;;;;;;;;-1.77;71.84;99575.47;4867736;29;20427;-67
2022/12/18 08:54:29;;;;;;;;;;;;;;;-1.81;70.72;99568.63;4862831;29;20015;-65
2022/12/18 08:56:55;;;;;;;;;;;;;;;-1.79;71.12;99560.06;4855784;29;19984;-66
2022/12/18 08:59:20;;;;;;;;;;;;;;;-1.80;71.53;99555.75;4856076;29;19916;-66
2022/12/18 09:01:45;;;;;;;;;;;;;;;-1.76;71.57;99565.19;4856408;29;19971;-63
2022/12/18 09:04:10;;;;;;;;;;;;;;;-1.70;71.84;99556.63;4857681;29;19999;-67
2022/12/18 09:06:36;;;;;;;;;;;;;;;-1.67;72.14;99554.06;4857038;29;20360;-67
2022/12/18 09:09:01;;;;;;;;;;;;;;;-1.61;72.04;99558.38;4849183;29;20349;-68
2022/12/18 09:11:26;;;;;;;;;;;;;;;-1.59;72.07;99560.06;4860111;29;20493;-67
2022/12/18 09:13:52;;;;;;;;;;;;;;;-1.57;71.13;99560.09;4857440;29;20288;-67
2022/12/18 09:16:17;;;;;;;;;;;;;;;-1.54;72.00;99563.53;4861286;29;19965;-67
2022/12/18 09:18:42;;;;;;;;;;;;;;;-1.54;71.55;99557.53;4855873;29;20644;-67
2022/12/18 09:21:09;;;;;;;;;;;;;;;-1.52;71.95;99559.22;4853999;29;19916;-68
2022/12/18 09:23:34;;;;;;;;;;;;;;;-1.50;71.35;99565.25;4857001;29;20377;-67
2022/12/18 09:25:59;;;;;;;;;;;;;;;-1.49;71.32;99566.09;4855123;29;19923;-67
2022/12/18 09:28:24;;;;;;;;;;;;;;;-1.47;71.21;99554.97;4869389;29;19916;-67
2022/12/18 09:30:50;;;;;;;;;;;;;;;-1.45;71.08;99554.94;4853256;29;19969;-67
2022/12/18 09:33:15;;;;;;;;;;;;;;;-1.39;71.60;99557.53;4865357;29;19963;-67
2022/12/18 09:35:41;;;;;;;;;;;;;;;-1.39;71.55;99554.97;4860925;29;20312;-68
2022/12/18 09:38:06;;;;;;;;;;;;;;;-1.35;71.36;99555.81;4858013;29;19917;-66
2022/12/18 09:40:33;;;;;;;;;;;;;;;-1.35;71.48;99551.53;4856411;29;19916;-67
2022/12/18 09:42:59;;;;;;;;;;;;;;;-1.32;71.59;99551.53;4857274;29;20400;-68
2022/12/18 09:45:24;;;;;;;;;;;;;;;-1.27;71.76;99539.53;4861996;29;20052;-67
2022/12/18 09:47:49;;;;;;;;;;;;;;;-1.24;72.04;99534.41;4863451;29;20273;-67
2022/12/18 09:50:21;;;;;;;;;;;;;;;-1.20;71.75;99533.53;4857847;29;19923;-67
2022/12/18 09:52:48;;;;;;;;;;;;;;;-1.16;71.47;99534.41;4858759;29;19923;-67
2022/12/18 09:55:19;;;;;;;;;;;;;;;-1.18;71.61;99530.09;4857619;29;19916;-67
2022/12/18 09:58:05;;;;;;;;;;;;;;;-1.16;71.42;99543.84;4860616;29;19924;-67
2022/12/18 10:00:30;;;;;;;;;;;;;;;-1.16;70.36;99543.84;4859334;29;19949;-67
2022/12/18 10:02:58;;;;;;;;;;;;;;;-1.14;71.11;99536.94;4856986;29;20007;-66
2022/12/18 10:05:37;;;;;;;;;;;;;;;-1.13;70.61;99538.69;4855785;29;19916;-67
2022/12/18 10:08:08;;;;;;;;;;;;;;;-1.09;70.47;99540.41;4856943;29;19915;-67
2022/12/18 10:10:33;;;;;;;;;;;;;;;-1.04;70.76;99538.66;4857852;29;19931;-67
2022/12/18 10:13:16;;;;;;;;;;;;;;;-1.00;71.06;99535.22;4861442;29;19959;-66
2022/12/18 10:15:46;;;;;;;;;;;;;;;-0.95;70.15;99523.22;4858533;29;19923;-66
2022/12/18 10:18:14;;;;;;;;;;;;;;;-0.90;70.37;99521.47;4860230;29;19951;-66
2022/12/18 10:20:42;;;;;;;;;;;;;;;-0.85;70.12;99514.63;4858643;29;19986;-67
2022/12/18 10:23:10;;;;;;;;;;;;;;;-0.84;69.72;99513.75;4860245;29;20581;-66
2022/12/18 10:25:50;;;;;;;;;;;;;;;-0.81;69.57;99511.16;4857604;29;19944;-67
2022/12/18 10:28:15;;;;;;;;;;;;;;;-0.79;70.06;99514.63;4858864;29;21189;-66
2022/12/18 10:30:41;;;;;;;;;;;;;;;-0.78;69.14;99515.47;4874526;29;19947;-67
2022/12/18 10:33:08;;;;;;;;;;;;;;;-0.76;69.06;99518.88;4857956;29;19915;-67
2022/12/18 10:35:34;;;;;;;;;;;;;;;-0.67;69.33;99518.88;4874442;29;19927;-67
2022/12/18 10:38:00;;;;;;;;;;;;;;;-0.60;69.05;99505.09;4855823;29;20193;-67
2022/12/18 10:40:25;;;;;;;;;;;;;;;-0.58;67.74;99510.28;4851865;29;19931;-68
2022/12/18 10:43:03;;;;;;;;;;;;;;;-0.49;68.76;99520.53;4858223;29;19924;-66
2022/12/18 10:45:29;;;;;;;;;;;;;;;-0.38;68.31;99518.81;4859154;29;20010;-68
2022/12/18 10:47:54;;;;;;;;;;;;;;;-0.24;69.71;99521.31;4857424;29;20016;-67
2022/12/18 10:50:25;;;;;;;;;;;;;;;-0.11;70.61;99524.69;4857755;29;20328;-66
2022/12/18 10:52:57;;;;;;;;;;;;;;;-0.05;68.43;99515.19;4858202;29;20007;-67
2022/12/18 10:55:22;;;;;;;;;;;;;;;0.02;68.10;99516.03;4858195;29;19916;-65
2022/12/18 10:57:47;;;;;;;;;;;;;;;-0.01;66.70;99516.03;4873595;29;19920;-66
2022/12/18 11:00:25;;;;;;;;;;;;;;;-0.05;65.67;99527.25;4856267;29;20611;-66
2022/12/18 11:02:50;;;;;;;;;;;;;;;-0.13;65.67;99529.88;4859548;29;19959;-66
2022/12/18 11:05:42;;;;;;;;;;;;;;;-0.16;64.98;99531.59;4857692;29;19973;-66
2022/12/18 11:08:07;;;;;;;;;;;;;;;-0.14;65.37;99540.16;4855610;29;19916;-66
2022/12/18 11:10:36;;;;;;;;;;;;;;;-0.07;64.81;99537.59;4858251;29;19926;-65
2022/12/18 11:13:18;;;;;;;;;;;;;;;-0.01;65.09;99523.78;4852682;29;20022;-65
2022/12/18 11:15:43;;;;;;;;;;;;;;;0.04;65.15;99519.47;4854235;29;20343;-67
2022/12/18 11:18:15;;;;;;;;;;;;;;;0.07;65.35;99509.13;4856817;29;20010;-67
2022/12/18 11:20:41;;;;;;;;;;;;;;;0.17;65.38;99504.75;4856988;29;20466;-65
2022/12/18 11:23:10;;;;;;;;;;;;;;;0.27;64.87;99505.56;4870211;29;20613;-66
2022/12/18 11:25:35;;;;;;;;;;;;;;;0.36;65.11;99505.50;4856307;29;20006;-68
2022/12/18 11:28:01;;;;;;;;;;;;;;;0.41;65.22;99508.91;4856771;29;20027;-65
2022/12/18 11:30:30;;;;;;;;;;;;;;;0.49;65.82;99504.56;4856888;29;19920;-66
2022/12/18 11:33:11;;;;;;;;;;;;;;;0.49;64.48;99507.16;4859461;29;19937;-65
2022/12/18 11:35:42;;;;;;;;;;;;;;;0.50;65.36;99503.69;4854074;29;20493;-66
2022/12/18 11:38:13;;;;;;;;;;;;;;;0.41;64.48;99493.41;4857146;29;20015;-66
2022/12/18 11:40:40;;;;;;;;;;;;;;;0.33;64.98;99490.03;4857232;29;19916;-66
2022/12/18 11:43:26;;;;;;;;;;;;;;;0.26;63.28;99489.22;4854696;29;19912;-65
2022/12/18 11:46:11;;;;;;;;;;;;;;;0.18;64.63;99476.38;4871273;29;19924;-65
2022/12/18 11:48:37;;;;;;;;;;;;;;;0.15;63.90;99480.72;4857718;29;19927;-67
2022/12/18 11:51:03;;;;;;;;;;;;;;;0.15;64.04;99476.41;4857821;29;19967;-66
2022/12/18 11:53:28;;;;;;;;;;;;;;;0.14;64.66;99479.84;4872022;29;20357;-65
2022/12/18 11:56:02;;;;;;;;;;;;;;;0.11;63.77;99469.56;4855966;29;19928;-65
2022/12/18 11:58:33;;;;;;;;;;;;;;;0.12;64.05;99476.41;4873232;29;19923;-67
2022/12/18 12:01:01;;;;;;;;;;;;;;;0.08;64.08;99469.56;4875382;29;19911;-65
2022/12/18 12:03:45;;;;;;;;;;;;;;;0.04;63.99;99460.13;4858543;29;19976;-65
2022/12/18 12:06:10;;;;;;;;;;;;;;;0.04;63.42;99464.44;4856684;29;19920;-66
2022/12/18 12:08:42;;;;;;;;;;;;;;;0.03;64.76;99460.97;4858849;29;19915;-65
2022/12/18 12:11:17;;;;;;;;;;;;;;;0.01;64.18;99473.06;4860388;29;20288;-65
2022/12/18 12:14:05;;;;;;;;;;;;;;;0.02;63.48;99471.31;4858106;29;19916;-66
2022/12/18 12:16:33;;;;;;;;;;;;;;;0.01;64.02;99467.91;4854808;29;20369;-65
2022/12/18 12:19:01;;;;;;;;;;;;;;;0.02;63.45;99459.28;4852227;29;20396;-67
2022/12/18 12:21:47;;;;;;;;;;;;;;;0.00;64.38;99450.72;4860011;29;19923;-65
2022/12/18 12:24:32;;;;;;;;;;;;;;;-0.02;63.81;99455.88;4851778;29;19927;-65
2022/12/18 12:26:57;;;;;;;;;;;;;;;-0.03;63.60;99450.72;4851419;29;19924;-64
2022/12/18 12:29:37;;;;;;;;;;;;;;;-0.04;64.34;99454.16;4855599;29;19972;-63
2022/12/18 12:32:03;;;;;;;;;;;;;;;-0.04;63.13;99459.31;4858258;29;19924;-64
2022/12/18 12:34:34;;;;;;;;;;;;;;;-0.01;62.98;99459.28;4858220;29;20482;-65
2022/12/18 12:36:59;;;;;;;;;;;;;;;-0.02;63.27;99462.75;4856728;29;20444;-64
2022/12/18 12:39:29;;;;;;;;;;;;;;;0.01;64.06;99460.16;4856969;29;19972;-64
2022/12/18 12:44:42;;;;;;;;;;;;;;;-0.17;63.54;99447.34;4873161;29;20398;-64
2022/12/18 12:47:28;;;;;;;;;;;;;;;-0.08;63.58;99444.72;4860244;29;20022;-66
2022/12/18 12:49:53;;;;;;;;;;;;;;;-0.03;64.07;99443.00;4858141;29;19976;-64
2022/12/18 12:52:21;;;;;;;;;;;;;;;0.01;64.52;99442.09;4858448;29;19916;-65
2022/12/18 12:54:47;;;;;;;;;;;;;;;0.00;63.88;99440.41;4861080;29;19920;-64
2022/12/18 12:57:31;;;;;;;;;;;;;;;0.02;64.17;99443.81;4863029;29;20437;-63
2022/12/18 13:00:25;;;;;;;;;;;;;;;0.06;64.59;99439.47;4855642;29;19923;-63
2022/12/18 13:03:00;;;;;;;;;;;;;;;0.05;63.63;99433.47;4860626;29;19941;-64
2022/12/18 13:05:28;;;;;;;;;;;;;;;0.07;63.68;99431.75;4860674;29;19922;-64
2022/12/18 13:07:56;;;;;;;;;;;;;;;0.07;63.74;99436.91;4861232;29;19916;-64
2022/12/18 13:10:23;;;;;;;;;;;;;;;0.14;63.70;99435.13;4858184;29;19951;-63
2022/12/18 13:12:58;;;;;;;;;;;;;;;0.17;64.62;99427.34;4860479;29;20388;-64
2022/12/18 13:15:26;;;;;;;;;;;;;;;0.21;64.34;99423.91;4861591;29;20014;-65
2022/12/18 13:18:02;;;;;;;;;;;;;;;0.19;64.00;99423.91;4862038;29;19928;-64
2022/12/18 13:20:32;;;;;;;;;;;;;;;0.18;63.40;99429.09;4857363;29;20003;-65
2022/12/18 13:22:57;;;;;;;;;;;;;;;0.16;63.13;99435.97;4858607;29;19915;-62
2022/12/18 13:25:32;;;;;;;;;;;;;;;0.15;63.71;99434.25;4861436;29;19919;-65
2022/12/18 13:28:00;;;;;;;;;;;;;;;0.13;64.28;99426.53;4861910;29;19931;-64
2022/12/18 13:30:31;;;;;;;;;;;;;;;0.14;63.91;99428.25;4860093;29;19935;-65
2022/12/18 13:33:15;;;;;;;;;;;;;;;0.12;64.04;99424.81;4859304;29;20307;-63
2022/12/18 13:35:40;;;;;;;;;;;;;;;0.10;63.62;99421.38;4860938;29;19924;-64
2022/12/18 13:38:23;;;;;;;;;;;;;;;0.06;64.42;99414.53;4862488;29;19993;-65
2022/12/18 13:40:49;;;;;;;;;;;;;;;0.02;63.60;99424.91;4860665;29;19920;-64
2022/12/18 13:43:20;;;;;;;;;;;;;;;-0.03;63.62;99430.09;4859443;29;19924;-65
2022/12/18 13:45:45;;;;;;;;;;;;;;;-0.07;63.89;99433.53;4860883;29;20003;-65
2022/12/18 13:48:14;;;;;;;;;;;;;;;-0.11;64.34;99427.53;4860130;29;20002;-66
2022/12/18 13:50:39;;;;;;;;;;;;;;;-0.10;64.95;99428.41;4856895;29;19915;-64
2022/12/18 13:53:04;;;;;;;;;;;;;;;-0.10;64.91;99428.41;4857350;29;20300;-65
2022/12/18 13:55:30;;;;;;;;;;;;;;;-0.09;65.04;99427.53;4859318;29;19912;-66
2022/12/18 13:58:04;;;;;;;;;;;;;;;-0.13;64.96;99423.28;4859532;29;19978;-64
2022/12/18 14:00:29;;;;;;;;;;;;;;;-0.16;64.59;99425.88;4861775;29;19912;-65
2022/12/18 14:02:55;;;;;;;;;;;;;;;-0.17;65.23;99413.81;4873297;29;19972;-65
2022/12/18 14:05:21;;;;;;;;;;;;;;;-0.17;65.18;99406.09;4858139;29;19920;-66
2022/12/18 14:07:46;;;;;;;;;;;;;;;-0.18;65.16;99404.38;4859542;29;19922;-66
2022/12/18 14:10:12;;;;;;;;;;;;;;;-0.17;65.63;99403.50;4857394;29;19915;-65
2022/12/18 14:15:34;;;;;;;;;;;;;;;-0.19;65.67;99402.69;4858372;29;20444;-65
2022/12/18 14:18:02;;;;;;;;;;;;;;;-0.23;65.77;99400.97;4858857;29;19920;-66
2022/12/18 14:20:28;;;;;;;;;;;;;;;-0.26;65.17;99394.97;4860514;29;19923;-66
2022/12/18 14:22:54;;;;;;;;;;;;;;;-0.29;65.33;99392.41;4856415;29;19920;-65
2022/12/18 14:25:20;;;;;;;;;;;;;;;-0.33;65.85;99395.88;4854885;29;20285;-65
2022/12/18 14:27:46;;;;;;;;;;;;;;;-0.37;65.52;99394.19;4851177;29;19920;-65
2022/12/18 14:30:38;;;;;;;;;;;;;;;-0.39;65.94;99403.63;4854800;29;19932;-65
2022/12/18 14:33:04;;;;;;;;;;;;;;;-0.43;66.12;99414.84;4853093;29;19943;-66
2022/12/18 14:35:30;;;;;;;;;;;;;;;-0.46;66.26;99414.84;4854891;29;19962;-66
2022/12/18 14:38:09;;;;;;;;;;;;;;;-0.48;65.63;99416.59;4853717;29;19967;-66
2022/12/18 14:40:34;;;;;;;;;;;;;;;-0.52;65.42;99420.03;4860415;29;19916;-66
2022/12/18 14:42:59;;;;;;;;;;;;;;;-0.58;65.95;99427.81;4856187;29;21175;-67
2022/12/18 14:45:37;;;;;;;;;;;;;;;-0.62;66.52;99428.66;4859451;29;20296;-66
2022/12/18 14:48:06;;;;;;;;;;;;;;;-0.63;66.46;99424.38;4855865;29;19923;-66
2022/12/18 14:50:31;;;;;;;;;;;;;;;-0.68;67.31;99418.41;4849473;29;19969;-68
2022/12/18 14:52:56;;;;;;;;;;;;;;;-0.73;67.78;99420.97;4857290;29;19916;-68
2022/12/18 14:55:22;;;;;;;;;;;;;;;-0.77;67.04;99420.13;4860329;29;19912;-68
2022/12/18 14:57:49;;;;;;;;;;;;;;;-0.80;67.87;99425.28;4858104;29;19920;-67
2022/12/18 15:00:18;;;;;;;;;;;;;;;2.91;75.66;99405.75;4860658;29;19920;-67
2022/12/18 15:02:44;;;;;;;;;;;;;;;1.82;61.40;99409.25;4854481;29;19972;-67
2022/12/18 15:05:13;;;;;;;;;;;;;;;1.18;61.83;99409.19;4856795;29;19951;-67
2022/12/18 15:07:41;;;;;;;;;;;;;;;0.73;62.92;99422.63;4857979;29;19920;-66
2022/12/18 15:10:25;;;;;;;;;;;;;;;0.33;63.46;99418.63;4858156;29;20329;-66
2022/12/18 15:12:59;;;;;;;;;;;;;;;0.04;64.27;99418.88;4858454;29;19935;-68
2022/12/18 15:15:33;;;;;;;;;;;;;;;-0.17;64.45;99429.28;4857127;29;19924;-67
2022/12/18 15:18:01;;;;;;;;;;;;;;;-0.40;66.27;99427.72;4855535;29;20399;-68
2022/12/18 15:20:27;;;;;;;;;;;;;;;-0.56;65.93;99426.06;4851391;29;19947;-66
2022/12/18 15:22:52;;;;;;;;;;;;;;;-0.68;66.12;99419.25;4857624;29;20039;-67
2022/12/18 15:25:28;;;;;;;;;;;;;;;2.85;95.19;99413.63;4858311;29;19943;-65
2022/12/18 15:27:53;;;;;;;;;;;;;;;2.96;60.54;99411.72;4857201;29;19920;-67
2022/12/18 15:30:19;;;;;;;;;;;;;;;1.83;59.09;99416.16;4858209;29;19942;-67
2022/12/18 15:32:44;;;;;;;;;;;;;;;1.15;60.34;99417.00;4856870;29;19949;-67
2022/12/18 15:35:20;;;;;;;;;;;;;;;0.66;61.40;99420.09;4857152;29;19920;-66
2022/12/18 15:37:45;;;;;;;;;;;;;;;0.26;62.41;99422.13;4854953;29;19968;-67
2022/12/18 15:40:11;;;;;;;;;;;;;;;-0.04;63.39;99433.50;4857533;29;19924;-66
2022/12/18 15:45:21;;;;;;;;;;;;;;;-0.49;65.11;99430.31;4856759;29;19935;-67
2022/12/18 15:47:46;;;;;;;;;;;;;;;-0.67;65.55;99430.41;4858930;29;19931;-67
2022/12/18 15:50:11;;;;;;;;;;;;;;;-0.78;66.99;99423.56;4857873;29;19916;-67
2022/12/18 15:52:41;;;;;;;;;;;;;;;-0.92;67.49;99430.50;4858192;29;19922;-67
2022/12/18 15:58:00;;;;;;;;;;;;;;;-1.12;67.14;99443.41;4856790;29;19966;-67
2022/12/18 16:00:25;;;;;;;;;;;;;;;-1.17;67.59;99434.84;4855659;29;19955;-68
2022/12/18 16:02:51;;;;;;;;;;;;;;;-1.24;67.10;99436.56;4852092;29;20010;-67
2022/12/18 16:05:16;;;;;;;;;;;;;;;-1.27;68.22;99431.44;4857422;29;19916;-68
2022/12/18 16:07:42;;;;;;;;;;;;;;;-1.31;68.17;99415.97;4872138;29;19927;-66
2022/12/18 16:10:07;;;;;;;;;;;;;;;-1.34;68.34;99422.00;4857791;29;19916;-67
2022/12/18 16:12:32;;;;;;;;;;;;;;;2.34;97.04;99418.81;4857640;29;19916;-65
2022/12/18 16:14:58;;;;;;;;;;;;;;;4.45;65.53;99413.72;4856751;29;19916;-67
2022/12/18 16:17:23;;;;;;;;;;;;;;;2.83;56.31;99412.81;4858729;29;19943;-66
2022/12/18 16:19:48;;;;;;;;;;;;;;;1.87;57.79;99410.06;4852863;29;19916;-67
2022/12/18 16:22:21;;;;;;;;;;;;;;;1.21;59.48;99415.22;4856785;29;19916;-67
2022/12/18 16:24:46;;;;;;;;;;;;;;;0.58;61.49;99427.03;4870088;29;20380;-67
2022/12/18 16:27:11;;;;;;;;;;;;;;;0.17;62.37;99428.22;4857746;29;19912;-67
2022/12/18 16:29:36;;;;;;;;;;;;;;;-0.15;63.32;99430.16;4858203;29;19998;-66
2022/12/18 16:32:02;;;;;;;;;;;;;;;-0.40;64.67;99426.84;4857529;29;19916;-67
2022/12/18 16:34:28;;;;;;;;;;;;;;;-0.60;65.22;99427.78;4856060;29;19923;-67
2022/12/18 16:36:57;;;;;;;;;;;;;;;-0.81;65.27;99418.44;4857293;29;20075;-67
2022/12/18 16:39:23;;;;;;;;;;;;;;;-0.96;66.47;99408.19;4855837;29;19947;-68
2022/12/18 16:41:48;;;;;;;;;;;;;;;-1.05;67.85;99411.63;4858492;29;20337;-67
2022/12/18 16:44:14;;;;;;;;;;;;;;;-1.18;67.42;99412.50;4856787;29;19923;-67
2022/12/18 16:46:39;;;;;;;;;;;;;;;-1.30;67.62;99413.41;4856254;29;19966;-67
2022/12/18 16:49:04;;;;;;;;;;;;;;;-1.36;67.90;99415.97;4855499;29;20332;-67
2022/12/18 16:51:32;;;;;;;;;;;;;;;-1.41;68.01;99407.44;4853278;29;19955;-66
2022/12/18 16:53:58;;;;;;;;;;;;;;;-1.48;67.84;99410.84;4853863;29;19916;-66
2022/12/18 16:56:23;;;;;;;;;;;;;;;-1.57;68.16;99418.59;4859133;29;19916;-67
2022/12/18 16:58:51;;;;;;;;;;;;;;;-1.63;68.67;99408.28;4857174;29;19924;-66
2022/12/18 17:01:17;;;;;;;;;;;;;;;-1.68;69.26;99414.28;4854321;29;20308;-67
2022/12/18 17:03:42;;;;;;;;;;;;;;;-1.75;68.81;99415.16;4852048;29;19916;-66
2022/12/18 17:06:07;;;;;;;;;;;;;;;-1.80;68.82;99416.84;4856496;29;19920;-67
2022/12/18 17:08:32;;;;;;;;;;;;;;;-1.85;69.20;99421.16;4856943;29;20448;-67
2022/12/18 17:11:05;;;;;;;;;;;;;;;-1.89;69.20;99410.84;4857825;29;19912;-65
2022/12/18 17:13:30;;;;;;;;;;;;;;;-1.97;68.62;99409.13;4855612;29;19916;-67
2022/12/18 17:16:00;;;;;;;;;;;;;;;-1.96;69.85;99415.16;4854562;29;20288;-66
2022/12/18 17:18:25;;;;;;;;;;;;;;;-2.01;69.71;99412.56;4854727;29;20380;-66
2022/12/18 17:20:51;;;;;;;;;;;;;;;-2.04;69.48;99406.56;4856248;29;20000;-67
2022/12/18 17:23:16;;;;;;;;;;;;;;;-2.10;69.43;99396.25;4852154;29;20296;-67
2022/12/18 17:25:41;;;;;;;;;;;;;;;-2.12;70.20;99392.84;4853576;29;20308;-67
2022/12/18 17:28:06;;;;;;;;;;;;;;;-2.15;70.10;99399.69;4857403;29;20296;-67
2022/12/18 17:30:31;;;;;;;;;;;;;;;-2.22;70.46;99395.38;4860856;29;20474;-67
2022/12/18 17:32:57;;;;;;;;;;;;;;;-2.24;70.41;99398.78;4859538;29;20295;-67
2022/12/18 17:35:22;;;;;;;;;;;;;;;-2.28;70.57;99392.78;4859987;29;19979;-67
2022/12/18 17:37:47;;;;;;;;;;;;;;;-2.31;70.60;99394.50;4859085;29;19920;-67
2022/12/18 17:40:12;;;;;;;;;;;;;;;-2.36;70.99;99391.94;4859905;29;19939;-67
2022/12/18 17:42:38;;;;;;;;;;;;;;;-2.38;71.17;99396.19;4858499;29;20304;-66
2022/12/18 17:45:03;;;;;;;;;;;;;;;-2.41;71.48;99398.75;4861589;29;20278;-67
2022/12/18 17:47:28;;;;;;;;;;;;;;;-2.40;71.41;99387.66;4857097;29;19939;-67
2022/12/18 17:49:53;;;;;;;;;;;;;;;-2.41;71.15;99391.03;4859206;29;20415;-66
2022/12/18 17:52:19;;;;;;;;;;;;;;;-2.44;71.02;99391.06;4874063;29;20380;-67
2022/12/18 17:54:44;;;;;;;;;;;;;;;-2.46;71.22;99388.47;4858396;29;19915;-67
2022/12/18 17:57:09;;;;;;;;;;;;;;;-2.47;71.10;99385.91;4857981;29;19926;-67
2022/12/18 17:59:34;;;;;;;;;;;;;;;-2.50;71.29;99386.75;4858529;29;19919;-66
2022/12/18 18:02:00;;;;;;;;;;;;;;;-2.51;71.49;99385.06;4856790;29;20458;-67
2022/12/18 18:04:25;;;;;;;;;;;;;;;-2.56;72.28;99386.75;4860901;29;20002;-67
2022/12/18 18:06:50;;;;;;;;;;;;;;;-2.56;71.69;99385.88;4857951;29;20002;-66
2022/12/18 18:09:15;;;;;;;;;;;;;;;-2.54;71.97;99386.75;4874452;29;19916;-66
2022/12/18 18:14:25;;;;;;;;;;;;;;;-2.56;72.61;99380.75;4861274;29;19976;-67
2022/12/18 18:16:51;;;;;;;;;;;;;;;-2.58;72.36;99378.19;4859445;29;19928;-67
2022/12/18 18:19:17;;;;;;;;;;;;;;;-2.61;72.72;99373.03;4857666;29;19916;-67
2022/12/18 18:21:43;;;;;;;;;;;;;;;-2.59;72.39;99376.44;4858079;29;19939;-66
2022/12/18 18:24:08;;;;;;;;;;;;;;;-2.63;72.27;99378.16;4860630;29;20380;-67
2022/12/18 18:26:33;;;;;;;;;;;;;;;-2.65;72.63;99377.31;4859857;29;19920;-67
2022/12/18 18:28:59;;;;;;;;;;;;;;;-2.66;72.63;99372.16;4854837;29;19916;-67
2022/12/18 18:31:24;;;;;;;;;;;;;;;-2.68;72.65;99377.28;4858401;29;19919;-67
2022/12/18 18:33:50;;;;;;;;;;;;;;;-2.69;72.26;99375.56;4857114;29;19975;-67
2022/12/18 18:36:15;;;;;;;;;;;;;;;-2.67;72.29;99379.00;4857410;29;20019;-67
2022/12/18 18:38:40;;;;;;;;;;;;;;;-2.70;72.73;99373.84;4857668;29;20007;-67
2022/12/18 18:41:05;;;;;;;;;;;;;;;-2.71;73.15;99376.44;4850668;29;20015;-67
2022/12/18 18:43:31;;;;;;;;;;;;;;;-2.73;73.08;99373.84;4852954;29;19924;-67
2022/12/18 18:45:56;;;;;;;;;;;;;;;-2.73;72.74;99373.84;4857151;29;19923;-67
2022/12/18 18:48:21;;;;;;;;;;;;;;;-2.74;74.20;99374.69;4855475;29;20369;-67
2022/12/18 18:51:00;;;;;;;;;;;;;;;-2.73;73.90;99372.97;4855426;29;20554;-67
2022/12/18 18:53:25;;;;;;;;;;;;;;;-2.76;72.92;99363.56;4856807;29;19975;-67
2022/12/18 18:55:50;;;;;;;;;;;;;;;-2.76;72.36;99365.25;4860158;29;19912;-67
2022/12/18 18:58:15;;;;;;;;;;;;;;;-2.78;72.82;99365.28;4859215;29;19959;-67
2022/12/18 19:00:41;;;;;;;;;;;;;;;-2.78;72.92;99367.84;4856545;29;19967;-67
2022/12/18 19:03:06;;;;;;;;;;;;;;;-2.78;73.10;99365.28;4854366;29;19955;-67
2022/12/18 19:05:31;;;;;;;;;;;;;;;-2.78;73.32;99362.72;4857091;29;19966;-67
2022/12/18 19:07:57;;;;;;;;;;;;;;;-2.76;73.29;99362.69;4873700;29;19951;-67
2022/12/18 19:10:22;;;;;;;;;;;;;;;-2.77;73.37;99359.28;4859323;29;19935;-67
2022/12/18 19:15:32;;;;;;;;;;;;;;;-2.79;73.25;99352.41;4857603;29;19972;-67
2022/12/18 19:17:57;;;;;;;;;;;;;;;-2.78;73.04;99357.56;4855788;29;19928;-67
2022/12/18 19:20:23;;;;;;;;;;;;;;;-2.78;73.14;99355.00;4853955;29;19954;-68
2022/12/18 19:22:48;;;;;;;;;;;;;;;-2.77;73.26;99351.56;4853658;29;20002;-67
2022/12/18 19:25:13;;;;;;;;;;;;;;;-2.78;72.89;99344.72;4857155;29;19999;-68
2022/12/18 19:27:38;;;;;;;;;;;;;;;-2.78;73.68;99342.16;4857789;29;20006;-67
2022/12/18 19:30:04;;;;;;;;;;;;;;;-2.78;73.83;99338.75;4859117;29;20333;-67
2022/12/18 19:32:30;;;;;;;;;;;;;;;3.09;100.00;99334.56;4858399;29;20455;-66
2022/12/18 19:34:56;;;;;;;;;;;;;;;1.79;69.84;99326.50;4856444;29;19923;-65
2022/12/18 19:37:21;;;;;;;;;;;;;;;0.74;64.52;99323.59;4855663;29;19931;-65
2022/12/18 19:39:46;;;;;;;;;;;;;;;0.08;65.05;99330.25;4858357;29;19921;-65
2022/12/18 19:42:11;;;;;;;;;;;;;;;-0.40;65.49;99322.03;4856830;29;19916;-64
2022/12/18 19:44:37;;;;;;;;;;;;;;;-0.81;65.87;99319.69;4856214;29;19923;-65
2022/12/18 19:47:02;;;;;;;;;;;;;;;-1.10;66.96;99324.94;4858680;29;19920;-64
2022/12/18 19:49:27;;;;;;;;;;;;;;;-1.38;67.98;99332.75;4856810;29;20357;-65
2022/12/18 19:51:52;;;;;;;;;;;;;;;-1.54;69.00;99351.69;4858360;29;19912;-64
2022/12/18 19:54:17;;;;;;;;;;;;;;;-1.71;69.63;99344.84;4858128;29;19922;-65
2022/12/18 19:56:43;;;;;;;;;;;;;;;-1.83;70.48;99334.53;4858205;29;19931;-64
2022/12/18 19:59:08;;;;;;;;;;;;;;;-1.91;70.65;99336.28;4857014;29;19959;-65
2022/12/18 20:01:33;;;;;;;;;;;;;;;-1.98;71.03;99332.00;4857413;29;19974;-65
2022/12/18 20:03:58;;;;;;;;;;;;;;;-2.04;71.30;99329.41;4856667;29;19955;-65
2022/12/18 20:06:24;;;;;;;;;;;;;;;-2.10;71.07;99330.25;4858551;29;19916;-65
2022/12/18 20:08:49;;;;;;;;;;;;;;;-2.13;71.29;99331.97;4854984;29;19923;-64
2022/12/18 20:11:14;;;;;;;;;;;;;;;-2.16;71.71;99341.41;4857987;29;19971;-64
2022/12/18 20:13:39;;;;;;;;;;;;;;;-2.19;71.89;99346.56;4858433;29;19915;-65
2022/12/18 20:16:05;;;;;;;;;;;;;;;-2.24;71.31;99343.09;4857946;29;19920;-63
2022/12/18 20:18:30;;;;;;;;;;;;;;;-2.27;71.47;99330.28;4858054;29;20001;-65
2022/12/18 20:20:55;;;;;;;;;;;;;;;-2.31;71.56;99323.41;4855909;29;19924;-65
2022/12/18 20:23:21;;;;;;;;;;;;;;;-2.32;72.05;99333.69;4857693;29;19916;-65
2022/12/18 20:25:46;;;;;;;;;;;;;;;-2.36;72.19;99330.25;4857243;29;19915;-64
2022/12/18 20:28:12;;;;;;;;;;;;;;;-2.37;72.00;99336.25;4857044;29;19959;-68
2022/12/18 20:30:37;;;;;;;;;;;;;;;-2.38;72.11;99331.97;4856919;29;19936;-70
2022/12/18 20:33:02;;;;;;;;;;;;;;;-2.39;72.32;99332.81;4857756;29;19916;-68
2022/12/18 20:35:29;;;;;;;;;;;;;;;-2.43;72.38;99331.97;4872950;29;19912;-68
2022/12/18 20:37:55;;;;;;;;;;;;;;;-2.44;72.28;99335.41;4856438;29;20439;-67
2022/12/18 20:40:20;;;;;;;;;;;;;;;-2.42;72.49;99340.53;4859705;29;19951;-69
2022/12/18 20:42:46;;;;;;;;;;;;;;;-2.41;73.04;99330.28;4855663;29;20482;-67
2022/12/18 20:45:11;;;;;;;;;;;;;;;-2.42;72.65;99330.25;4852826;29;19942;-68
2022/12/18 20:47:36;;;;;;;;;;;;;;;-2.42;72.72;99330.25;4858267;29;19912;-69
2022/12/18 20:50:01;;;;;;;;;;;;;;;-2.42;72.84;99331.09;4858312;29;19985;-65
2022/12/18 20:52:27;;;;;;;;;;;;;;;-2.41;73.04;99324.25;4856167;29;20048;-69
2022/12/18 20:54:52;;;;;;;;;;;;;;;-2.43;72.50;99315.69;4873152;29;19912;-67
2022/12/18 20:57:17;;;;;;;;;;;;;;;-2.45;72.68;99309.69;4858379;29;19916;-68
2022/12/18 20:59:43;;;;;;;;;;;;;;;-2.44;73.10;99308.84;4857177;29;20063;-68
2022/12/18 21:02:09;;;;;;;;;;;;;;;-2.44;72.64;99290.88;4865586;29;20096;-65
2022/12/18 21:04:34;;;;;;;;;;;;;;;-2.42;73.32;99304.56;4861725;29;19927;-65
2022/12/18 21:06:59;;;;;;;;;;;;;;;-2.44;73.04;99303.72;4861017;29;19927;-65
2022/12/18 21:09:24;;;;;;;;;;;;;;;-2.42;73.09;99307.13;4876976;29;19916;-65
2022/12/18 21:14:33;;;;;;;;;;;;;;;-2.38;72.97;99295.97;4855562;29;20019;-65
2022/12/18 21:17:00;;;;;;;;;;;;;;;-2.40;72.76;99292.56;4859619;29;20440;-65
2022/12/18 21:19:26;;;;;;;;;;;;;;;-2.40;72.74;99295.16;4860708;29;20006;-65
2022/12/18 21:21:51;;;;;;;;;;;;;;;-2.40;72.95;99301.13;4861140;29;20011;-65
2022/12/18 21:24:16;;;;;;;;;;;;;;;-2.39;72.78;99304.56;4861682;29;19916;-65
2022/12/18 21:26:42;;;;;;;;;;;;;;;-2.42;72.54;99302.84;4856526;29;20019;-65
2022/12/18 21:29:09;;;;;;;;;;;;;;;-2.42;72.73;99296.84;4859247;29;20048;-66
2022/12/18 21:31:35;;;;;;;;;;;;;;;0.82;90.80;99285.63;4852662;29;20341;-67
2022/12/18 21:34:00;;;;;;;;;;;;;;;-0.04;76.09;99283.91;4858799;29;20441;-66
2022/12/18 21:36:26;;;;;;;;;;;;;;;-0.61;73.26;99292.09;4858187;29;20003;-66
2022/12/18 21:38:51;;;;;;;;;;;;;;;-0.96;73.27;99294.88;4858061;29;19959;-66
2022/12/18 21:44:06;;;;;;;;;;;;;;;-1.48;70.85;99284.75;4853142;29;19923;-66
2022/12/18 21:46:35;;;;;;;;;;;;;;;-1.67;70.57;99279.66;4857064;29;20571;-66
2022/12/18 21:49:01;;;;;;;;;;;;;;;-1.81;70.58;99278.84;4856519;29;19912;-66
2022/12/18 21:51:26;;;;;;;;;;;;;;;-1.91;70.91;99283.13;4856774;29;19916;-66
2022/12/18 21:53:51;;;;;;;;;;;;;;;-1.99;70.52;99286.59;4860680;29;19915;-66
2022/12/18 21:56:16;;;;;;;;;;;;;;;-2.09;70.89;99274.59;4861118;29;19924;-67